Time;durP1;ratioP1;P1;durP2;ratioP2;P2;SDS_P1;SDS_P2;PMS_P1;PMS_P2;Temp;Humidity;BMP_temperature;BMP_pressure;BME280_temperature;BME280_humidity;BME280_pressure;Samples;Min_cycle;Max_cycle;Signal;HPM_P1;HPM_P2
2021/05/06 00:05:42;;;;;;;;;;;7.70;92.40;;;;;;5053029;28;20460;-85
2021/05/06 00:32:20;;;;;;;;;;;7.60;93.00;;;;;;5056607;28;19916;-87
2021/05/06 00:34:46;;;;;;;;;;;7.50;93.00;;;;;;5055048;28;19954;-87
2021/05/06 00:37:14;;;;;;;;;;;7.50;93.10;;;;;;5054976;28;19971;-87
2021/05/06 00:39:46;;;;;;;;;;;7.50;92.90;;;;;;5054297;28;19911;-86
2021/05/06 00:55:49;;;;;;;;;;;7.40;93.00;;;;;;5056674;28;19912;-86
2021/05/06 00:59:00;;;;;;;;;;;7.40;93.30;;;;;;5054589;28;19911;-87
2021/05/06 01:01:15;;;;;;;;;;;7.40;93.00;;;;;;5052396;28;19911;-89
2021/05/06 01:06:27;;;;;;;;;;;7.50;93.20;;;;;;5056271;28;20062;-86
2021/05/06 01:09:04;;;;;;;;;;;7.50;93.30;;;;;;5054660;28;19979;-87
2021/05/06 01:12:12;;;;;;;;;;;7.50;93.40;;;;;;5055008;28;19939;-86
2021/05/06 01:14:18;;;;;;;;;;;7.50;93.60;;;;;;5048201;28;20076;-86
2021/05/06 01:16:44;;;;;;;;;;;7.50;93.70;;;;;;5054880;28;19905;-86
2021/05/06 01:19:09;;;;;;;;;;;7.50;93.80;;;;;;5055375;28;19905;-86
2021/05/06 01:21:35;;;;;;;;;;;7.50;93.80;;;;;;5056077;28;19912;-87
2021/05/06 01:24:01;;;;;;;;;;;7.50;93.80;;;;;;5055947;28;20104;-86
2021/05/06 01:26:34;;;;;;;;;;;7.40;93.60;;;;;;5054364;28;19915;-86
2021/05/06 01:29:03;;;;;;;;;;;7.40;93.60;;;;;;5053930;28;20432;-86
2021/05/06 01:31:33;;;;;;;;;;;7.40;93.50;;;;;;5053157;28;19917;-86
2021/05/06 01:36:30;;;;;;;;;;;7.40;93.30;;;;;;5055361;28;19944;-87
2021/05/06 01:39:19;;;;;;;;;;;7.30;93.00;;;;;;5053982;28;19951;-87
2021/05/06 01:59:58;;;;;;;;;;;7.30;93.80;;;;;;5055665;28;19905;-86
2021/05/06 02:02:24;;;;;;;;;;;7.20;94.00;;;;;;5071534;28;20099;-87
2021/05/06 02:04:49;;;;;;;;;;;7.30;94.30;;;;;;5053533;28;20007;-86
2021/05/06 02:07:15;;;;;;;;;;;7.30;94.00;;;;;;5053329;28;19909;-86
2021/05/06 02:09:41;;;;;;;;;;;7.30;94.00;;;;;;5053513;28;19905;-86
2021/05/06 02:12:09;;;;;;;;;;;7.30;94.40;;;;;;5054520;28;20265;-87
2021/05/06 02:14:34;;;;;;;;;;;7.30;94.40;;;;;;5053959;28;19916;-86
2021/05/06 02:17:00;;;;;;;;;;;7.30;94.50;;;;;;5058496;28;19905;-86
2021/05/06 02:19:33;;;;;;;;;;;7.30;94.70;;;;;;5058417;28;19944;-87
2021/05/06 02:22:00;;;;;;;;;;;7.30;94.70;;;;;;5058980;28;19905;-87
2021/05/06 02:24:26;;;;;;;;;;;7.20;94.80;;;;;;5056081;28;20202;-86
2021/05/06 02:26:53;;;;;;;;;;;7.30;94.70;;;;;;5052893;28;19908;-86
2021/05/06 02:29:18;;;;;;;;;;;7.20;95.00;;;;;;5053586;28;19905;-86
2021/05/06 02:31:44;;;;;;;;;;;7.20;94.50;;;;;;5052629;28;20004;-86
2021/05/06 02:34:09;;;;;;;;;;;7.20;94.30;;;;;;5052793;28;20361;-86
2021/05/06 02:36:35;;;;;;;;;;;7.20;94.10;;;;;;5052552;28;20358;-87
2021/05/06 02:39:00;;;;;;;;;;;7.20;94.20;;;;;;5052423;28;20025;-86
2021/05/06 02:41:26;;;;;;;;;;;7.00;93.70;;;;;;5052345;28;20276;-86
2021/05/06 02:43:51;;;;;;;;;;;7.00;93.90;;;;;;5052507;28;19904;-86
2021/05/06 02:46:17;;;;;;;;;;;7.10;93.90;;;;;;5052808;28;19915;-87
2021/05/06 02:48:43;;;;;;;;;;;7.00;94.00;;;;;;5052142;28;20051;-86
2021/05/06 02:51:09;;;;;;;;;;;7.10;93.90;;;;;;5051369;28;19904;-86
2021/05/06 02:53:37;;;;;;;;;;;7.00;94.00;;;;;;5051982;28;19999;-87
2021/05/06 02:58:53;;;;;;;;;;;6.90;94.30;;;;;;5053097;28;19912;-86
2021/05/06 03:04:04;;;;;;;;;;;7.00;94.80;;;;;;5053325;28;19916;-87
2021/05/06 03:06:34;;;;;;;;;;;7.00;94.50;;;;;;5051506;28;19916;-86
2021/05/06 03:09:07;;;;;;;;;;;7.00;94.30;;;;;;5052334;28;20416;-87
2021/05/06 03:24:57;;;;;;;;;;;7.00;94.40;;;;;;5053031;28;20331;-86
2021/05/06 03:27:28;;;;;;;;;;;7.00;94.30;;;;;;5051183;28;19909;-86
2021/05/06 03:32:36;;;;;;;;;;;7.00;94.30;;;;;;5052575;28;19905;-87
2021/05/06 03:35:42;;;;;;;;;;;6.90;94.60;;;;;;5052361;28;19939;-86
2021/05/06 03:43:45;;;;;;;;;;;6.90;94.40;;;;;;5052569;28;19927;-86
2021/05/06 04:28:09;;;;;;;;;;;7.00;95.00;;;;;;5013816;28;19916;-86
2021/05/06 04:37:03;;;;;;;;;;;7.00;95.00;;;;;;5053275;28;19955;-86
2021/05/06 04:39:53;;;;;;;;;;;7.10;95.10;;;;;;5038673;28;20424;-87
2021/05/06 05:04:31;;;;;;;;;;;6.90;95.20;;;;;;5056202;28;19926;-86
2021/05/06 05:24:56;;;;;;;;;;;7.00;95.30;;;;;;5055390;28;19941;-86
2021/05/06 05:27:23;;;;;;;;;;;7.10;95.00;;;;;;5055623;28;19916;-86
2021/05/06 05:29:49;;;;;;;;;;;7.10;94.80;;;;;;5055054;28;19990;-86
2021/05/06 05:32:15;;;;;;;;;;;7.00;94.90;;;;;;5053809;28;20426;-87
2021/05/06 05:34:44;;;;;;;;;;;6.90;95.20;;;;;;5054081;28;19905;-86
2021/05/06 05:37:16;;;;;;;;;;;6.90;95.30;;;;;;5053722;28;19908;-86
2021/05/06 05:40:06;;;;;;;;;;;6.90;95.50;;;;;;5054897;28;19952;-86
2021/05/06 05:56:04;;;;;;;;;;;6.90;95.40;;;;;;5055261;28;20007;-86
2021/05/06 05:58:30;;;;;;;;;;;7.00;95.30;;;;;;5053595;28;20369;-86
2021/05/06 06:00:56;;;;;;;;;;;6.90;95.40;;;;;;5053132;28;19927;-86
2021/05/06 06:03:21;;;;;;;;;;;7.00;95.30;;;;;;5055274;28;20333;-86
2021/05/06 06:05:47;;;;;;;;;;;7.10;95.30;;;;;;5053255;28;19916;-86
2021/05/06 06:08:16;;;;;;;;;;;7.10;95.00;;;;;;5054306;28;19905;-87
2021/05/06 06:10:42;;;;;;;;;;;7.00;95.20;;;;;;5052623;28;19908;-86
2021/05/06 06:13:08;;;;;;;;;;;7.00;95.20;;;;;;5069872;28;20381;-86
2021/05/06 06:18:13;;;;;;;;;;;6.90;95.10;;;;;;5054497;28;20258;-86
2021/05/06 06:20:42;;;;;;;;;;;6.90;95.40;;;;;;5052307;28;19904;-86
2021/05/06 06:23:07;;;;;;;;;;;7.00;95.30;;;;;;5054379;28;19905;-87
2021/05/06 06:25:33;;;;;;;;;;;6.90;95.50;;;;;;5052974;28;19916;-86
2021/05/06 06:27:58;;;;;;;;;;;7.00;95.30;;;;;;5055245;28;19908;-86
2021/05/06 06:30:24;;;;;;;;;;;7.00;94.90;;;;;;5055829;28;20288;-86
2021/05/06 06:32:50;;;;;;;;;;;7.10;94.90;;;;;;5054866;28;19995;-86
2021/05/06 06:35:16;;;;;;;;;;;7.10;94.80;;;;;;5055276;28;19908;-86
2021/05/06 06:37:41;;;;;;;;;;;7.20;94.80;;;;;;5055389;28;19972;-86
2021/05/06 06:40:07;;;;;;;;;;;7.10;94.50;;;;;;5056489;28;19908;-86
2021/05/06 06:42:33;;;;;;;;;;;7.20;94.40;;;;;;5055340;28;19931;-86
2021/05/06 06:44:58;;;;;;;;;;;7.20;94.40;;;;;;5056205;28;19911;-87
2021/05/06 06:47:24;;;;;;;;;;;7.20;94.20;;;;;;5054414;28;19935;-86
2021/05/06 06:49:49;;;;;;;;;;;7.20;94.00;;;;;;5053902;28;19935;-86
2021/05/06 06:52:15;;;;;;;;;;;7.30;94.20;;;;;;5053810;28;20003;-86
2021/05/06 06:54:40;;;;;;;;;;;7.30;93.70;;;;;;5052619;28;20308;-86
2021/05/06 06:57:08;;;;;;;;;;;7.30;93.70;;;;;;5053897;28;19905;-86
2021/05/06 06:59:33;;;;;;;;;;;7.30;93.30;;;;;;5052260;28;19933;-87
2021/05/06 07:01:59;;;;;;;;;;;7.30;93.10;;;;;;5052744;28;19905;-87
2021/05/06 07:04:25;;;;;;;;;;;7.30;93.40;;;;;;5052723;28;19905;-87
2021/05/06 07:06:50;;;;;;;;;;;7.30;93.60;;;;;;5052957;28;19954;-87
2021/05/06 07:09:16;;;;;;;;;;;7.30;93.80;;;;;;5052498;28;20273;-87
2021/05/06 07:11:41;;;;;;;;;;;7.30;93.70;;;;;;5052616;28;19905;-87
2021/05/06 07:14:07;;;;;;;;;;;7.30;93.70;;;;;;5052542;28;19912;-87
2021/05/06 07:16:32;;;;;;;;;;;7.40;93.70;;;;;;5052749;28;19909;-87
2021/05/06 07:18:58;;;;;;;;;;;7.40;93.70;;;;;;5053324;28;20391;-87
2021/05/06 07:21:24;;;;;;;;;;;7.50;93.80;;;;;;5052724;28;19908;-87
2021/05/06 07:23:53;;;;;;;;;;;7.50;93.40;;;;;;5052469;28;20415;-87
2021/05/06 07:26:19;;;;;;;;;;;7.50;93.30;;;;;;5052743;28;19908;-87
2021/05/06 07:28:44;;;;;;;;;;;7.60;93.30;;;;;;5053629;28;19952;-87
2021/05/06 07:31:10;;;;;;;;;;;7.60;93.40;;;;;;5051722;28;20397;-87
2021/05/06 07:33:36;;;;;;;;;;;7.60;93.40;;;;;;5052436;28;19934;-87
2021/05/06 07:36:02;;;;;;;;;;;7.70;93.40;;;;;;5052432;28;19950;-87
2021/05/06 07:38:30;;;;;;;;;;;7.80;93.20;;;;;;5053554;28;20475;-86
2021/05/06 07:40:58;;;;;;;;;;;7.80;93.00;;;;;;5052034;28;19912;-86
2021/05/06 07:43:24;;;;;;;;;;;7.90;92.70;;;;;;5052395;28;19908;-87
2021/05/06 07:45:49;;;;;;;;;;;7.80;92.40;;;;;;5052306;28;20362;-87
2021/05/06 07:48:15;;;;;;;;;;;7.90;92.30;;;;;;5053749;28;19905;-87
2021/05/06 07:50:41;;;;;;;;;;;7.80;91.80;;;;;;5051211;28;19905;-87
2021/05/06 07:53:15;;;;;;;;;;;7.80;91.90;;;;;;5051240;28;19909;-86
2021/05/06 07:55:41;;;;;;;;;;;7.80;92.00;;;;;;5051401;28;19955;-86
2021/05/06 07:58:07;;;;;;;;;;;7.90;91.80;;;;;;5052578;28;19948;-87
2021/05/06 08:00:34;;;;;;;;;;;7.90;91.70;;;;;;5052136;28;19912;-86
2021/05/06 08:03:00;;;;;;;;;;;8.00;91.10;;;;;;5051039;28;20357;-87
2021/05/06 08:05:25;;;;;;;;;;;8.00;91.00;;;;;;5050899;28;19912;-86
2021/05/06 08:07:51;;;;;;;;;;;8.00;91.10;;;;;;5050981;28;19905;-87
2021/05/06 08:10:17;;;;;;;;;;;8.10;90.80;;;;;;5050495;28;20280;-87
2021/05/06 08:12:43;;;;;;;;;;;8.10;91.00;;;;;;5050914;28;19904;-86
2021/05/06 08:15:09;;;;;;;;;;;8.20;90.60;;;;;;5051034;28;19905;-87
2021/05/06 08:17:35;;;;;;;;;;;8.30;90.90;;;;;;5051170;28;19931;-87
2021/05/06 08:20:04;;;;;;;;;;;8.40;90.80;;;;;;5051614;28;19916;-86
2021/05/06 08:22:29;;;;;;;;;;;8.40;90.50;;;;;;5051353;28;20004;-87
2021/05/06 08:24:55;;;;;;;;;;;8.50;90.40;;;;;;5054720;28;19944;-86
2021/05/06 08:27:20;;;;;;;;;;;8.50;90.40;;;;;;5054382;28;19974;-86
2021/05/06 08:29:46;;;;;;;;;;;8.40;90.40;;;;;;5054639;28;19935;-87
2021/05/06 08:32:11;;;;;;;;;;;8.50;90.70;;;;;;5060722;28;19955;-87
2021/05/06 08:34:37;;;;;;;;;;;8.50;91.00;;;;;;5052779;28;19958;-87
2021/05/06 08:37:02;;;;;;;;;;;8.50;90.60;;;;;;5052647;28;19905;-87
2021/05/06 08:39:28;;;;;;;;;;;8.60;90.90;;;;;;5051911;28;19909;-87
2021/05/06 08:41:53;;;;;;;;;;;8.70;91.00;;;;;;5054503;28;19909;-86
2021/05/06 08:44:21;;;;;;;;;;;8.70;90.90;;;;;;5054419;28;20345;-86
2021/05/06 08:47:12;;;;;;;;;;;8.70;90.40;;;;;;5054303;28;20361;-86
2021/05/06 08:49:34;;;;;;;;;;;8.70;90.60;;;;;;5054895;28;19911;-86
2021/05/06 08:52:00;;;;;;;;;;;8.60;90.30;;;;;;5056368;28;19955;-87
2021/05/06 08:54:26;;;;;;;;;;;8.60;90.40;;;;;;5054458;28;19940;-86
2021/05/06 08:56:52;;;;;;;;;;;8.60;90.60;;;;;;5054420;28;19951;-86
2021/05/06 08:59:17;;;;;;;;;;;8.70;90.60;;;;;;5053752;28;19904;-87
2021/05/06 09:01:43;;;;;;;;;;;8.70;90.50;;;;;;5054590;28;19905;-86
2021/05/06 09:04:08;;;;;;;;;;;8.70;90.10;;;;;;5055662;28;19988;-87
2021/05/06 09:06:34;;;;;;;;;;;8.80;90.00;;;;;;5054711;28;19916;-86
2021/05/06 09:09:04;;;;;;;;;;;8.80;89.70;;;;;;5054712;28;19905;-87
2021/05/06 09:11:31;;;;;;;;;;;8.80;88.80;;;;;;5056430;28;20322;-86
2021/05/06 09:14:00;;;;;;;;;;;8.90;88.10;;;;;;5055136;28;19905;-86
2021/05/06 09:16:32;;;;;;;;;;;9.00;87.10;;;;;;5055495;28;19932;-87
2021/05/06 09:19:01;;;;;;;;;;;9.00;86.00;;;;;;5054740;28;19905;-86
2021/05/06 09:21:28;;;;;;;;;;;9.10;86.30;;;;;;5055825;28;19962;-86
2021/05/06 09:24:13;;;;;;;;;;;9.00;85.20;;;;;;5054749;28;20210;-86
2021/05/06 09:26:39;;;;;;;;;;;9.00;85.40;;;;;;5054886;28;19915;-85
2021/05/06 09:29:07;;;;;;;;;;;9.00;85.10;;;;;;5054899;28;19915;-86
2021/05/06 09:31:37;;;;;;;;;;;9.10;85.40;;;;;;5056360;28;19947;-86
2021/05/06 09:34:10;;;;;;;;;;;9.10;85.60;;;;;;5056041;28;19909;-86
2021/05/06 09:36:35;;;;;;;;;;;9.10;86.00;;;;;;5054388;28;19904;-87
2021/05/06 09:39:01;;;;;;;;;;;9.20;85.00;;;;;;5053987;28;19966;-86
2021/05/06 09:41:28;;;;;;;;;;;9.20;85.40;;;;;;5055558;28;20361;-87
2021/05/06 09:43:55;;;;;;;;;;;9.30;85.40;;;;;;5054202;28;19909;-87
2021/05/06 09:46:42;;;;;;;;;;;9.40;84.70;;;;;;5054205;28;19908;-87
2021/05/06 09:49:12;;;;;;;;;;;9.40;83.10;;;;;;5053651;28;20404;-87
2021/05/06 09:51:37;;;;;;;;;;;9.40;83.10;;;;;;5054617;28;19904;-86
2021/05/06 09:54:04;;;;;;;;;;;9.40;83.20;;;;;;5054181;28;19912;-86
2021/05/06 09:56:29;;;;;;;;;;;9.40;83.40;;;;;;5055391;28;19909;-86
2021/05/06 09:58:55;;;;;;;;;;;9.40;83.60;;;;;;5053388;28;19975;-86
2021/05/06 10:01:22;;;;;;;;;;;9.40;82.20;;;;;;5053808;28;20058;-86
2021/05/06 10:03:48;;;;;;;;;;;9.40;83.00;;;;;;5070361;28;19959;-86
2021/05/06 10:06:15;;;;;;;;;;;9.40;81.70;;;;;;5054531;28;19912;-86
2021/05/06 10:08:41;;;;;;;;;;;9.40;80.40;;;;;;5054836;28;19908;-86
2021/05/06 10:11:11;;;;;;;;;;;9.40;80.60;;;;;;5053016;28;20426;-86
2021/05/06 10:13:39;;;;;;;;;;;9.40;79.60;;;;;;5054970;28;19905;-86
2021/05/06 10:16:05;;;;;;;;;;;9.40;80.10;;;;;;5054961;28;19916;-86
2021/05/06 10:18:30;;;;;;;;;;;9.50;79.90;;;;;;5054636;28;19905;-86
2021/05/06 10:20:56;;;;;;;;;;;9.50;78.40;;;;;;5053906;28;19912;-86
2021/05/06 10:23:21;;;;;;;;;;;9.50;77.10;;;;;;5054268;28;19950;-86
2021/05/06 10:25:47;;;;;;;;;;;9.50;77.90;;;;;;5054127;28;19953;-86
2021/05/06 10:28:14;;;;;;;;;;;9.60;75.90;;;;;;5052933;28;19905;-86
2021/05/06 10:30:40;;;;;;;;;;;9.60;76.30;;;;;;5053516;28;19912;-86
2021/05/06 10:33:06;;;;;;;;;;;9.60;75.70;;;;;;5053022;28;20380;-86
2021/05/06 10:35:31;;;;;;;;;;;9.70;76.50;;;;;;5052871;28;19920;-86
2021/05/06 10:37:58;;;;;;;;;;;9.70;75.60;;;;;;5053080;28;19979;-86
2021/05/06 10:40:25;;;;;;;;;;;9.60;76.50;;;;;;5052078;28;19940;-86
2021/05/06 10:42:51;;;;;;;;;;;9.70;76.90;;;;;;5054057;28;19905;-86
2021/05/06 10:45:21;;;;;;;;;;;9.80;76.30;;;;;;5052620;28;19905;-86
2021/05/06 10:47:50;;;;;;;;;;;9.70;75.90;;;;;;5054257;28;19909;-86
2021/05/06 10:50:17;;;;;;;;;;;9.80;75.40;;;;;;5051983;28;19908;-86
2021/05/06 10:52:49;;;;;;;;;;;9.80;75.40;;;;;;5052480;28;19911;-86
2021/05/06 10:55:15;;;;;;;;;;;9.80;75.90;;;;;;5053526;28;20391;-86
2021/05/06 10:57:41;;;;;;;;;;;9.80;76.10;;;;;;5053540;28;19912;-86
2021/05/06 11:00:15;;;;;;;;;;;9.90;76.60;;;;;;5052833;28;20281;-86
2021/05/06 11:02:42;;;;;;;;;;;9.90;77.00;;;;;;5053104;28;19957;-86
2021/05/06 11:05:15;;;;;;;;;;;9.90;75.50;;;;;;5054020;28;20380;-86
2021/05/06 11:07:41;;;;;;;;;;;10.00;73.50;;;;;;5053753;28;20348;-86
2021/05/06 11:10:07;;;;;;;;;;;10.00;74.80;;;;;;5052772;28;19944;-86
2021/05/06 11:12:34;;;;;;;;;;;10.10;74.00;;;;;;5053286;28;19904;-86
2021/05/06 11:15:00;;;;;;;;;;;10.10;73.20;;;;;;5053787;28;20364;-86
2021/05/06 11:17:26;;;;;;;;;;;10.00;70.50;;;;;;5053234;28;19951;-86
2021/05/06 11:19:52;;;;;;;;;;;10.10;71.10;;;;;;5052830;28;20354;-86
2021/05/06 11:22:36;;;;;;;;;;;10.10;70.30;;;;;;5053458;28;19912;-86
2021/05/06 11:25:22;;;;;;;;;;;10.20;69.50;;;;;;5053867;28;19995;-86
2021/05/06 11:27:47;;;;;;;;;;;10.20;69.70;;;;;;5051707;28;19916;-86
2021/05/06 11:30:31;;;;;;;;;;;10.30;67.20;;;;;;5052347;28;19912;-86
2021/05/06 11:33:20;;;;;;;;;;;10.20;64.80;;;;;;5052827;28;19911;-86
2021/05/06 11:35:55;;;;;;;;;;;10.20;64.50;;;;;;5053308;28;19905;-86
2021/05/06 11:38:22;;;;;;;;;;;10.30;63.30;;;;;;5052274;28;19991;-86
2021/05/06 11:40:47;;;;;;;;;;;10.30;64.40;;;;;;5051705;28;20477;-87
2021/05/06 11:43:22;;;;;;;;;;;10.20;64.40;;;;;;5053361;28;19952;-86
2021/05/06 11:45:47;;;;;;;;;;;10.30;65.00;;;;;;5052276;28;20377;-86
2021/05/06 11:48:14;;;;;;;;;;;10.40;67.60;;;;;;5053499;28;19908;-86
2021/05/06 11:50:42;;;;;;;;;;;10.40;67.90;;;;;;5051647;28;19905;-86
2021/05/06 11:53:13;;;;;;;;;;;10.40;65.00;;;;;;5052283;28;19911;-86
2021/05/06 11:55:41;;;;;;;;;;;10.40;65.60;;;;;;5052091;28;20328;-86
2021/05/06 11:58:08;;;;;;;;;;;10.40;66.30;;;;;;5051982;28;19909;-86
2021/05/06 12:00:34;;;;;;;;;;;10.40;65.80;;;;;;5051291;28;19963;-87
2021/05/06 12:03:00;;;;;;;;;;;10.40;67.20;;;;;;5052895;28;20306;-87
2021/05/06 12:05:44;;;;;;;;;;;10.50;68.30;;;;;;5052842;28;19951;-86
2021/05/06 12:08:09;;;;;;;;;;;10.50;68.80;;;;;;5052049;28;19974;-86
2021/05/06 12:10:39;;;;;;;;;;;10.60;67.40;;;;;;5052735;28;19905;-86
2021/05/06 12:13:09;;;;;;;;;;;10.60;67.80;;;;;;5051451;28;19912;-86
2021/05/06 12:15:35;;;;;;;;;;;10.60;67.90;;;;;;5054559;28;19963;-86
2021/05/06 12:18:20;;;;;;;;;;;10.60;68.20;;;;;;5055908;28;19904;-86
2021/05/06 12:20:53;;;;;;;;;;;10.60;68.10;;;;;;5055382;28;19991;-86
2021/05/06 12:23:19;;;;;;;;;;;10.60;65.40;;;;;;5055824;28;19905;-87
2021/05/06 12:25:45;;;;;;;;;;;10.70;64.10;;;;;;5055636;28;20452;-85
2021/05/06 12:28:10;;;;;;;;;;;10.60;63.70;;;;;;5056681;28;19905;-87
2021/05/06 12:30:36;;;;;;;;;;;10.70;64.20;;;;;;5056777;28;19959;-86
2021/05/06 12:33:01;;;;;;;;;;;10.80;62.70;;;;;;5055866;28;19955;-86
2021/05/06 12:35:27;;;;;;;;;;;10.90;62.60;;;;;;5055464;28;19927;-86
2021/05/06 12:37:53;;;;;;;;;;;10.90;62.70;;;;;;5055485;28;19905;-86
2021/05/06 12:40:19;;;;;;;;;;;11.00;60.80;;;;;;5055969;28;20416;-87
2021/05/06 12:42:44;;;;;;;;;;;11.00;61.10;;;;;;5055174;28;20003;-86
2021/05/06 12:45:13;;;;;;;;;;;11.00;61.60;;;;;;5054938;28;19946;-86
2021/05/06 12:47:45;;;;;;;;;;;11.00;60.90;;;;;;5054558;28;19963;-87
2021/05/06 12:50:11;;;;;;;;;;;11.10;61.40;;;;;;5054430;28;20353;-87
2021/05/06 12:52:38;;;;;;;;;;;11.20;60.10;;;;;;5056225;28;19905;-87
2021/05/06 12:55:20;;;;;;;;;;;11.30;58.50;;;;;;5056110;28;20553;-87
2021/05/06 12:58:04;;;;;;;;;;;11.30;58.30;;;;;;5054997;28;19916;-87
2021/05/06 13:00:34;;;;;;;;;;;11.40;58.50;;;;;;5054216;28;19944;-87
2021/05/06 13:03:03;;;;;;;;;;;11.40;58.10;;;;;;5054710;28;19905;-87
2021/05/06 13:05:29;;;;;;;;;;;11.40;59.00;;;;;;5071241;28;19999;-87
2021/05/06 13:07:56;;;;;;;;;;;11.40;57.50;;;;;;5054632;28;19905;-87
2021/05/06 13:10:32;;;;;;;;;;;11.40;55.90;;;;;;5054018;28;19982;-87
2021/05/06 13:12:58;;;;;;;;;;;11.40;56.40;;;;;;5054858;28;19904;-87
2021/05/06 13:15:24;;;;;;;;;;;11.50;56.50;;;;;;5055909;28;19931;-87
2021/05/06 13:17:50;;;;;;;;;;;11.40;54.90;;;;;;5054589;28;20300;-87
2021/05/06 13:20:17;;;;;;;;;;;11.50;57.00;;;;;;5055657;28;19999;-87
2021/05/06 13:22:57;;;;;;;;;;;11.50;57.50;;;;;;5056020;28;19996;-87
2021/05/06 13:25:37;;;;;;;;;;;11.50;58.60;;;;;;5054723;28;20411;-87
2021/05/06 13:28:03;;;;;;;;;;;11.50;57.80;;;;;;5053211;28;20353;-87
2021/05/06 13:30:29;;;;;;;;;;;11.50;59.00;;;;;;5054705;28;19917;-87
2021/05/06 13:33:08;;;;;;;;;;;11.50;58.80;;;;;;5053808;28;19905;-87
2021/05/06 13:35:33;;;;;;;;;;;11.50;58.50;;;;;;5054072;28;20362;-87
2021/05/06 13:37:59;;;;;;;;;;;11.50;57.90;;;;;;5055204;28;19905;-87
2021/05/06 13:40:32;;;;;;;;;;;11.60;58.20;;;;;;5070302;28;19905;-87
2021/05/06 13:42:58;;;;;;;;;;;11.60;58.70;;;;;;5053236;28;19959;-87
2021/05/06 13:45:23;;;;;;;;;;;11.60;59.00;;;;;;5054053;28;19908;-87
2021/05/06 13:47:49;;;;;;;;;;;11.60;58.70;;;;;;5055002;28;19904;-87
2021/05/06 13:50:15;;;;;;;;;;;11.60;59.10;;;;;;5053584;28;19905;-87
2021/05/06 13:52:41;;;;;;;;;;;11.70;58.90;;;;;;5053853;28;19987;-87
2021/05/06 13:55:08;;;;;;;;;;;11.70;57.10;;;;;;5053622;28;19994;-87
2021/05/06 13:57:33;;;;;;;;;;;11.70;57.40;;;;;;5053628;28;19909;-87
2021/05/06 13:59:59;;;;;;;;;;;11.70;56.80;;;;;;5053371;28;19978;-87
2021/05/06 14:02:26;;;;;;;;;;;11.70;56.90;;;;;;5055192;28;19905;-87
2021/05/06 14:04:51;;;;;;;;;;;11.70;56.80;;;;;;5054079;28;19979;-87
2021/05/06 14:07:17;;;;;;;;;;;11.70;56.60;;;;;;5055331;28;20365;-87
2021/05/06 14:16:34;;;;;;;;;;;11.90;56.30;;;;;;5032612;28;19947;-87
2021/05/06 14:28:53;;;;;;;;;;;11.80;57.50;;;;;;5051966;28;19912;-88
2021/05/06 14:31:42;;;;;;;;;;;11.80;55.80;;;;;;5054794;28;19913;-88
2021/05/06 14:44:43;;;;;;;;;;;11.70;55.20;;;;;;4954295;28;20337;-88
2021/05/06 14:56:37;;;;;;;;;;;11.60;56.30;;;;;;4915571;29;19914;-88
2021/05/06 14:59:39;;;;;;;;;;;11.60;56.00;;;;;;5007067;28;19905;-88
2021/05/06 15:02:05;;;;;;;;;;;11.50;55.70;;;;;;5053536;28;19959;-88
2021/05/06 15:04:31;;;;;;;;;;;11.50;56.40;;;;;;5053046;28;19909;-88
2021/05/06 15:06:56;;;;;;;;;;;11.50;56.50;;;;;;5052676;28;19909;-88
2021/05/06 15:09:24;;;;;;;;;;;11.40;56.60;;;;;;5053647;28;19905;-88
2021/05/06 15:11:50;;;;;;;;;;;11.40;56.80;;;;;;5054649;28;19940;-88
2021/05/06 15:14:15;;;;;;;;;;;11.30;56.60;;;;;;5053473;28;19916;-88
2021/05/06 15:16:41;;;;;;;;;;;11.30;56.90;;;;;;5054167;28;19944;-89
2021/05/06 15:19:08;;;;;;;;;;;11.30;57.60;;;;;;5052048;28;20286;-88
2021/05/06 15:21:34;;;;;;;;;;;11.30;57.70;;;;;;5052318;28;19916;-88
2021/05/06 15:24:00;;;;;;;;;;;11.30;58.60;;;;;;5052202;28;19905;-88
2021/05/06 15:26:25;;;;;;;;;;;11.20;59.50;;;;;;5052498;28;19961;-88
2021/05/06 15:28:52;;;;;;;;;;;11.20;60.40;;;;;;5053862;28;19911;-88
2021/05/06 15:31:18;;;;;;;;;;;11.10;62.00;;;;;;5053794;28;19915;-88
2021/05/06 15:33:43;;;;;;;;;;;11.00;63.30;;;;;;5054229;28;20015;-88
2021/05/06 15:36:11;;;;;;;;;;;10.90;63.50;;;;;;5053094;28;19951;-87
2021/05/06 15:38:36;;;;;;;;;;;10.90;63.90;;;;;;5052558;28;19905;-88
2021/05/06 15:41:02;;;;;;;;;;;10.90;64.20;;;;;;5053154;28;19911;-88
2021/05/06 15:43:27;;;;;;;;;;;10.90;65.20;;;;;;5051375;28;19905;-88
2021/05/06 15:45:55;;;;;;;;;;;10.90;65.00;;;;;;5051481;28;20019;-88
2021/05/06 15:48:20;;;;;;;;;;;10.90;65.50;;;;;;5053249;28;20043;-88
2021/05/06 15:50:46;;;;;;;;;;;10.80;65.70;;;;;;5052717;28;20345;-88
2021/05/06 15:53:11;;;;;;;;;;;10.80;66.10;;;;;;5052117;28;19952;-88
2021/05/06 15:55:37;;;;;;;;;;;10.80;65.20;;;;;;5053392;28;19905;-89
2021/05/06 15:58:05;;;;;;;;;;;10.80;64.80;;;;;;5053518;28;19952;-88
2021/05/06 16:00:31;;;;;;;;;;;10.70;64.90;;;;;;5053159;28;19905;-88
2021/05/06 16:03:06;;;;;;;;;;;10.80;65.50;;;;;;5053329;28;19904;-88
2021/05/06 16:05:34;;;;;;;;;;;10.80;65.30;;;;;;5069000;28;19955;-88
2021/05/06 16:08:00;;;;;;;;;;;10.80;64.70;;;;;;5051691;28;19913;-88
2021/05/06 16:10:25;;;;;;;;;;;10.80;65.60;;;;;;5050657;28;20281;-88
2021/05/06 16:12:51;;;;;;;;;;;10.80;65.30;;;;;;5052883;28;19904;-87
2021/05/06 16:15:17;;;;;;;;;;;10.90;64.60;;;;;;5052574;28;19909;-88
2021/05/06 16:17:43;;;;;;;;;;;10.90;64.80;;;;;;5052620;28;19912;-88
2021/05/06 16:20:18;;;;;;;;;;;10.90;65.20;;;;;;5051384;28;19905;-88
2021/05/06 16:22:44;;;;;;;;;;;10.90;66.00;;;;;;5051499;28;20001;-88
2021/05/06 16:25:11;;;;;;;;;;;10.80;65.20;;;;;;5052777;28;19994;-88
2021/05/06 16:27:38;;;;;;;;;;;10.80;65.80;;;;;;5052737;28;20438;-88
2021/05/06 16:30:05;;;;;;;;;;;10.80;65.80;;;;;;5051143;28;19909;-88
2021/05/06 16:32:31;;;;;;;;;;;10.80;66.40;;;;;;5068118;28;20273;-88
2021/05/06 16:34:58;;;;;;;;;;;10.80;66.50;;;;;;5052841;28;19905;-89
2021/05/06 16:37:31;;;;;;;;;;;10.80;66.80;;;;;;5052676;28;20318;-88
2021/05/06 16:45:10;;;;;;;;;;;10.90;66.60;;;;;;5054535;28;19916;-88
2021/05/06 16:47:35;;;;;;;;;;;10.90;67.00;;;;;;5052565;28;20058;-89
2021/05/06 16:50:01;;;;;;;;;;;10.90;66.40;;;;;;5052844;28;20354;-88
2021/05/06 16:52:26;;;;;;;;;;;10.90;66.70;;;;;;5054403;28;19905;-88
2021/05/06 16:54:52;;;;;;;;;;;10.90;65.10;;;;;;5055061;28;19911;-88
2021/05/06 16:57:17;;;;;;;;;;;10.90;65.60;;;;;;5053140;28;19911;-88
2021/05/06 16:59:43;;;;;;;;;;;10.90;67.10;;;;;;5070948;28;19904;-88
2021/05/06 17:02:08;;;;;;;;;;;10.90;67.10;;;;;;5055059;28;19912;-88
2021/05/06 17:04:35;;;;;;;;;;;10.90;67.20;;;;;;5072166;28;20377;-88
2021/05/06 17:07:00;;;;;;;;;;;10.90;67.00;;;;;;5056291;28;19968;-88
2021/05/06 17:09:26;;;;;;;;;;;11.00;67.30;;;;;;5054687;28;19905;-88
2021/05/06 17:11:52;;;;;;;;;;;11.00;67.00;;;;;;5056106;28;19905;-88
2021/05/06 17:14:17;;;;;;;;;;;11.00;67.00;;;;;;5055257;28;20263;-88
2021/05/06 17:16:43;;;;;;;;;;;11.00;67.80;;;;;;5053934;28;19905;-89
2021/05/06 17:19:08;;;;;;;;;;;11.10;67.80;;;;;;5053493;28;20365;-88
2021/05/06 17:21:34;;;;;;;;;;;11.00;66.70;;;;;;5057323;28;19909;-88
2021/05/06 17:24:00;;;;;;;;;;;11.00;67.00;;;;;;5055610;28;19958;-89
2021/05/06 17:26:25;;;;;;;;;;;11.00;67.00;;;;;;5057835;28;19931;-88
2021/05/06 17:28:51;;;;;;;;;;;11.00;68.00;;;;;;5057210;28;20365;-88
2021/05/06 17:31:17;;;;;;;;;;;11.00;67.80;;;;;;5055589;28;19905;-88
2021/05/06 17:33:42;;;;;;;;;;;11.00;68.10;;;;;;5056060;28;19958;-88
2021/05/06 17:36:08;;;;;;;;;;;11.00;68.40;;;;;;5056226;28;20408;-88
2021/05/06 17:38:34;;;;;;;;;;;11.00;68.50;;;;;;5056131;28;19950;-88
2021/05/06 17:40:59;;;;;;;;;;;10.90;68.50;;;;;;5055152;28;20368;-88
2021/05/06 17:43:25;;;;;;;;;;;10.80;68.60;;;;;;5055228;28;19911;-89
2021/05/06 17:45:54;;;;;;;;;;;10.80;69.40;;;;;;5055063;28;20366;-88
2021/05/06 17:48:20;;;;;;;;;;;10.80;69.40;;;;;;5062506;28;20377;-88
2021/05/06 17:50:46;;;;;;;;;;;10.80;69.80;;;;;;5059409;28;19905;-89
2021/05/06 17:53:11;;;;;;;;;;;10.80;69.80;;;;;;5056825;28;20367;-88
2021/05/06 17:55:37;;;;;;;;;;;10.70;70.20;;;;;;5055768;28;20001;-88
2021/05/06 17:58:03;;;;;;;;;;;10.70;70.80;;;;;;5055302;28;20339;-88
2021/05/06 18:00:28;;;;;;;;;;;10.70;70.70;;;;;;5054671;28;20383;-88
2021/05/06 18:02:54;;;;;;;;;;;10.60;71.00;;;;;;5060088;28;19976;-86
2021/05/06 18:05:19;;;;;;;;;;;10.60;71.50;;;;;;5058477;28;19955;-87
2021/05/06 18:07:45;;;;;;;;;;;10.60;71.50;;;;;;5054645;28;19912;-86
2021/05/06 18:10:19;;;;;;;;;;;10.60;71.90;;;;;;5055684;28;19905;-87
2021/05/06 18:12:44;;;;;;;;;;;10.50;72.60;;;;;;5054592;28;19908;-87
2021/05/06 18:15:10;;;;;;;;;;;10.50;72.50;;;;;;5054418;28;19912;-87
2021/05/06 18:17:36;;;;;;;;;;;10.50;72.50;;;;;;5054427;28;20095;-87
2021/05/06 18:20:02;;;;;;;;;;;10.50;71.90;;;;;;5054672;28;19942;-86
2021/05/06 18:22:27;;;;;;;;;;;10.40;72.40;;;;;;5059558;28;19995;-86
2021/05/06 18:24:53;;;;;;;;;;;10.40;72.40;;;;;;5054726;28;19927;-87
2021/05/06 18:27:19;;;;;;;;;;;10.40;72.90;;;;;;5055778;28;19909;-87